createdAt,value
2022-07-29T00:01:01.690Z,98573.50
2022-07-29T00:03:28.151Z,98573.78
2022-07-29T00:05:54.563Z,98560.47
2022-07-29T00:08:21.301Z,98569.13
2022-07-29T00:10:48.175Z,98558.28
2022-07-29T00:13:16.948Z,98555.09
2022-07-29T00:15:43.358Z,98549.44
2022-07-29T00:18:09.865Z,98551.69
2022-07-29T00:20:36.308Z,98555.16
2022-07-29T00:23:02.742Z,98547.19
2022-07-29T00:25:29.627Z,98540.03
2022-07-29T00:27:57.335Z,98543.00
2022-07-29T00:30:24.067Z,98549.47
2022-07-29T00:32:50.708Z,98551.97
2022-07-29T00:35:17.090Z,98557.19
2022-07-29T00:37:45.916Z,98553.41
2022-07-29T00:40:12.565Z,98561.56
2022-07-29T00:42:43.653Z,98556.75
2022-07-29T00:45:11.264Z,98550.53
2022-07-29T00:47:43.543Z,98554.47
2022-07-29T00:50:13.119Z,98556.69
2022-07-29T00:52:41.635Z,98553.91
2022-07-29T00:55:12.199Z,98553.06
2022-07-29T00:57:38.876Z,98552.19
2022-07-29T01:00:07.405Z,98551.38
2022-07-29T01:02:33.905Z,98550.78
2022-07-29T01:05:01.940Z,98543.47
2022-07-29T01:07:29.847Z,98538.06
2022-07-29T01:09:57.757Z,98537.47
2022-07-29T01:12:28.055Z,98539.38
2022-07-29T01:14:56.342Z,98531.50
2022-07-29T01:17:29.939Z,98530.38
2022-07-29T01:20:31.327Z,98530.44
2022-07-29T01:23:19.688Z,98526.59
2022-07-29T01:26:04.656Z,98518.97
2022-07-29T01:28:50.527Z,98516.72
2022-07-29T01:31:22.373Z,98521.25
2022-07-29T01:33:58.931Z,98513.88
2022-07-29T01:36:41.526Z,98510.69
2022-07-29T01:39:15.166Z,98510.44
2022-07-29T01:41:51.725Z,98514.72
2022-07-29T01:44:23.652Z,98508.75
2022-07-29T01:47:00.052Z,98509.88
2022-07-29T01:49:34.765Z,98510.06
2022-07-29T01:52:08.513Z,98507.28
2022-07-29T01:54:55.528Z,98508.38
2022-07-29T01:57:29.398Z,98514.84
2022-07-29T01:59:58.141Z,98521.31
2022-07-29T02:02:25.862Z,98519.38
2022-07-29T02:04:54.619Z,98527.97
2022-07-29T02:07:24.870Z,98520.69
2022-07-29T02:09:53.501Z,98519.78
2022-07-29T02:12:21.671Z,98527.59
2022-07-29T02:14:52.115Z,98523.81
2022-07-29T02:17:24.683Z,98525.97
2022-07-29T02:19:52.769Z,98529.16
2022-07-29T02:22:20.589Z,98523.69
2022-07-29T02:24:48.762Z,98516.16
2022-07-29T02:27:16.105Z,98507.97
2022-07-29T02:29:43.384Z,98511.81
2022-07-29T02:32:13.708Z,98506.34
2022-07-29T02:34:42.611Z,98504.72
2022-07-29T02:37:11.195Z,98512.44
2022-07-29T02:39:39.913Z,98508.72
2022-07-29T02:42:09.400Z,98508.47
2022-07-29T02:44:36.037Z,98512.88
2022-07-29T02:47:20.194Z,98516.97
2022-07-29T02:50:01.220Z,98513.47
2022-07-29T02:52:39.765Z,98507.75
2022-07-29T02:55:14.473Z,98515.06
2022-07-29T02:57:53.866Z,98516.13
2022-07-29T03:00:24.651Z,98509.38
2022-07-29T03:02:55.187Z,98505.78
2022-07-29T03:05:21.833Z,98509.78
2022-07-29T03:07:59.489Z,98509.47
2022-07-29T03:10:27.126Z,98504.13
2022-07-29T03:12:56.092Z,98506.25
2022-07-29T03:15:23.367Z,98507.31
2022-07-29T03:17:53.520Z,98506.06
2022-07-29T03:20:20.139Z,98504.69
2022-07-29T03:22:47.133Z,98515.16
2022-07-29T03:25:15.275Z,98512.97
2022-07-29T03:27:41.916Z,98517.88
2022-07-29T03:30:09.825Z,98511.63
2022-07-29T03:32:36.805Z,98515.38
2022-07-29T03:35:05.033Z,98515.88
2022-07-29T03:37:31.598Z,98512.28
2022-07-29T03:39:59.007Z,98527.41
2022-07-29T03:42:34.038Z,98517.50
2022-07-29T03:45:04.396Z,98521.78
2022-07-29T03:47:49.669Z,98520.38
2022-07-29T03:50:18.041Z,98515.47
2022-07-29T03:52:45.267Z,98522.50
2022-07-29T03:55:12.881Z,98529.75
2022-07-29T03:57:41.498Z,98527.66
2022-07-29T04:00:09.401Z,98530.69
2022-07-29T04:02:37.588Z,98532.22
2022-07-29T04:05:04.295Z,98534.19
2022-07-29T04:07:30.772Z,98538.75
2022-07-29T04:09:57.269Z,98539.09
2022-07-29T04:12:23.811Z,98543.66
2022-07-29T04:14:50.196Z,98541.06
2022-07-29T04:17:17.169Z,98547.28
2022-07-29T04:19:43.475Z,98549.75
2022-07-29T04:22:10.373Z,98552.50
2022-07-29T04:24:36.753Z,98563.66
2022-07-29T04:27:04.400Z,98555.47
2022-07-29T04:29:30.734Z,98557.41
2022-07-29T04:31:57.430Z,98559.31
2022-07-29T04:34:28.165Z,98551.88
2022-07-29T04:36:54.907Z,98552.44
2022-07-29T04:39:23.189Z,98552.50
2022-07-29T04:41:50.277Z,98551.44
2022-07-29T04:44:17.053Z,98549.94
2022-07-29T04:46:44.276Z,98550.91
2022-07-29T04:49:10.872Z,98547.47
2022-07-29T04:51:37.548Z,98547.47
2022-07-29T04:54:04.162Z,98544.69
2022-07-29T04:56:30.729Z,98548.28
2022-07-29T04:58:57.457Z,98548.75
2022-07-29T05:01:24.198Z,98542.06
2022-07-29T05:03:53.988Z,98541.66
2022-07-29T05:06:23.522Z,98552.28
2022-07-29T05:08:50.020Z,98554.41
2022-07-29T05:11:21.344Z,98548.28
2022-07-29T05:13:50.982Z,98549.78
2022-07-29T05:16:17.535Z,98545.19
2022-07-29T05:18:44.474Z,98546.41
2022-07-29T05:21:10.929Z,98532.25
2022-07-29T05:23:37.303Z,98531.91
2022-07-29T05:26:03.882Z,98536.09
2022-07-29T05:28:34.305Z,98541.00
2022-07-29T05:31:00.605Z,98539.06
2022-07-29T05:33:35.488Z,98534.34
2022-07-29T05:36:06.563Z,98530.59
2022-07-29T05:38:33.597Z,98544.47
2022-07-29T05:41:00.213Z,98543.59
2022-07-29T05:43:29.009Z,98544.09
2022-07-29T05:45:55.788Z,98549.00
2022-07-29T05:48:22.383Z,98540.38
2022-07-29T05:50:48.798Z,98545.22
2022-07-29T05:53:19.576Z,98544.34
2022-07-29T05:55:48.288Z,98548.47
2022-07-29T05:58:15.275Z,98541.16
2022-07-29T06:00:41.856Z,98557.00
2022-07-29T06:03:08.579Z,98548.19
2022-07-29T06:05:34.993Z,98543.28
2022-07-29T06:08:01.868Z,98551.59
2022-07-29T06:10:28.255Z,98554.34
2022-07-29T06:12:57.496Z,98555.03
2022-07-29T06:15:23.862Z,98555.75
2022-07-29T06:18:00.566Z,98550.16
2022-07-29T06:20:32.555Z,98552.72
2022-07-29T06:23:00.083Z,98561.88
2022-07-29T06:25:27.614Z,98553.41
2022-07-29T06:27:54.160Z,98555.22
2022-07-29T06:30:20.791Z,98558.88
2022-07-29T06:32:50.479Z,98560.31
2022-07-29T06:35:38.453Z,98561.38
2022-07-29T06:38:09.597Z,98556.59
2022-07-29T06:40:56.556Z,98555.88
2022-07-29T06:43:22.979Z,98563.81
2022-07-29T06:45:52.821Z,98561.66
2022-07-29T06:48:19.265Z,98564.09
2022-07-29T06:50:45.722Z,98562.97
2022-07-29T06:53:12.147Z,98561.59
2022-07-29T06:55:38.574Z,98557.78
2022-07-29T06:58:05.073Z,98568.94
2022-07-29T07:00:31.569Z,98562.97
2022-07-29T07:02:58.025Z,98560.72
2022-07-29T07:05:25.528Z,98574.91
2022-07-29T07:07:52.039Z,98566.25
2022-07-29T07:10:21.801Z,98567.03
2022-07-29T07:12:50.686Z,98570.84
2022-07-29T07:15:17.109Z,98572.66
2022-07-29T07:17:46.663Z,98569.00
2022-07-29T07:20:13.283Z,98572.13
2022-07-29T07:22:39.934Z,98565.66
2022-07-29T07:25:06.959Z,98570.44
2022-07-29T07:27:33.468Z,98572.19
2022-07-29T07:30:02.283Z,98569.19
2022-07-29T07:32:28.999Z,98572.75
2022-07-29T07:34:55.435Z,98571.38
2022-07-29T07:37:21.793Z,98576.88
2022-07-29T07:39:48.182Z,98576.69
2022-07-29T07:42:14.582Z,98576.13
2022-07-29T07:45:03.896Z,98574.41
2022-07-29T07:47:28.872Z,98574.66
2022-07-29T07:49:55.523Z,98574.66
2022-07-29T07:52:23.335Z,98566.97
2022-07-29T07:54:50.281Z,98567.06
2022-07-29T07:57:17.401Z,98579.34
2022-07-29T07:59:44.074Z,98572.25
2022-07-29T08:02:10.762Z,98574.78
2022-07-29T08:04:37.555Z,98575.66
2022-07-29T08:07:04.186Z,98573.81
2022-07-29T08:09:31.035Z,98576.19
2022-07-29T08:11:58.674Z,98580.81
2022-07-29T08:14:25.192Z,98576.72
2022-07-29T08:16:56.568Z,98574.69
2022-07-29T08:19:23.201Z,98575.13
2022-07-29T08:21:51.165Z,98581.53
2022-07-29T08:24:17.713Z,98578.72
2022-07-29T08:26:44.555Z,98580.25
2022-07-29T08:29:11.168Z,98583.50
2022-07-29T08:31:38.619Z,98577.94
2022-07-29T08:34:05.822Z,98582.66
2022-07-29T08:36:34.206Z,98584.13
2022-07-29T08:39:01.138Z,98585.34
2022-07-29T08:41:28.109Z,98576.31
2022-07-29T08:43:54.536Z,98566.38
2022-07-29T08:46:22.287Z,98574.28
2022-07-29T08:48:49.557Z,98569.41
2022-07-29T08:51:18.747Z,98573.41
2022-07-29T08:53:47.300Z,98565.47
2022-07-29T08:56:14.607Z,98557.94
2022-07-29T08:58:42.564Z,98561.97
2022-07-29T09:01:17.645Z,98568.13
2022-07-29T09:03:47.209Z,98569.03
2022-07-29T09:06:16.034Z,98562.88
2022-07-29T09:08:42.904Z,98570.69
2022-07-29T09:11:10.390Z,98569.16
2022-07-29T09:13:36.958Z,98575.56
2022-07-29T09:16:08.884Z,98571.31
2022-07-29T09:18:38.664Z,98574.13
2022-07-29T09:21:06.973Z,98579.50
2022-07-29T09:23:33.559Z,98582.44
2022-07-29T09:26:07.161Z,98572.00
2022-07-29T09:28:33.696Z,98573.44
2022-07-29T09:31:00.165Z,98576.34
2022-07-29T09:33:34.883Z,98572.81
2022-07-29T09:36:06.911Z,98577.44
2022-07-29T09:38:34.812Z,98575.59
2022-07-29T09:41:06.719Z,98572.44
2022-07-29T09:43:34.647Z,98575.78
2022-07-29T09:46:28.191Z,98574.94
2022-07-29T09:49:09.490Z,98575.84
2022-07-29T09:51:38.048Z,98563.97
2022-07-29T09:54:24.289Z,98566.94
2022-07-29T09:56:51.732Z,98552.47
2022-07-29T09:59:18.645Z,98552.78
2022-07-29T10:01:45.520Z,98553.28
2022-07-29T10:04:12.105Z,98561.06
2022-07-29T10:07:04.410Z,98554.28
2022-07-29T10:09:32.597Z,98552.56
2022-07-29T10:12:09.838Z,98556.25
2022-07-29T10:14:37.080Z,98549.22
2022-07-29T10:17:04.901Z,98550.97
2022-07-29T10:19:35.172Z,98553.69
2022-07-29T10:22:04.989Z,98556.56
2022-07-29T10:24:32.579Z,98545.63
2022-07-29T10:27:02.480Z,98553.41
2022-07-29T10:29:30.079Z,98542.00
2022-07-29T10:32:31.026Z,98550.63
2022-07-29T10:35:36.716Z,98539.22
2022-07-29T10:38:45.910Z,98552.25
2022-07-29T10:41:43.641Z,98545.28
2022-07-29T10:44:19.097Z,98544.53
2022-07-29T10:46:46.940Z,98529.38
2022-07-29T10:49:15.399Z,98521.81
2022-07-29T10:51:51.467Z,98522.56
2022-07-29T10:54:19.698Z,98518.38
2022-07-29T10:56:46.755Z,98521.22
2022-07-29T10:59:19.280Z,98516.25
2022-07-29T11:01:53.633Z,98515.13
2022-07-29T11:04:43.967Z,98500.44
2022-07-29T11:07:10.860Z,98510.53
2022-07-29T11:09:38.695Z,98511.34
2022-07-29T11:12:38.774Z,98518.06
2022-07-29T11:15:08.804Z,98517.69
2022-07-29T11:17:53.300Z,98515.19
2022-07-29T11:20:38.544Z,98507.84
2022-07-29T11:23:27.722Z,98504.19
2022-07-29T11:26:12.824Z,98517.16
2022-07-29T11:28:51.561Z,98523.09
2022-07-29T11:31:44.265Z,98524.31
2022-07-29T11:34:20.893Z,98536.41
2022-07-29T11:37:09.542Z,98556.69
2022-07-29T11:39:38.933Z,98603.06
2022-07-29T11:42:17.300Z,98615.94
2022-07-29T11:45:08.509Z,98626.09
2022-07-29T11:47:56.153Z,98611.34
2022-07-29T11:50:37.483Z,98649.00
2022-07-29T11:53:14.411Z,98755.50
2022-07-29T11:55:50.918Z,98635.78
2022-07-29T11:58:26.217Z,98568.03
2022-07-29T12:00:55.680Z,98573.81
2022-07-29T12:03:33.613Z,98600.19
2022-07-29T12:06:11.971Z,98605.75
2022-07-29T12:08:43.805Z,98611.41
2022-07-29T12:11:23.775Z,98621.00
2022-07-29T12:13:51.918Z,98610.75
2022-07-29T12:16:26.114Z,98616.81
2022-07-29T12:19:00.835Z,98610.84
2022-07-29T12:21:57.023Z,98603.94
2022-07-29T12:24:27.401Z,98597.50
2022-07-29T12:27:31.301Z,98592.25
2022-07-29T12:33:15.708Z,98577.09
2022-07-29T12:35:58.103Z,98577.88
2022-07-29T12:38:30.632Z,98574.69
2022-07-29T12:40:57.462Z,98586.25
2022-07-29T12:43:26.087Z,98590.25
2022-07-29T12:45:58.957Z,98600.28
2022-07-29T12:48:39.120Z,98609.31
2022-07-29T12:51:07.852Z,98610.22
2022-07-29T12:53:36.096Z,98609.44
2022-07-29T12:56:42.412Z,98625.47
2022-07-29T12:59:34.650Z,98615.66
2022-07-29T13:02:05.113Z,98629.88
2022-07-29T13:04:33.740Z,98634.28
2022-07-29T13:07:10.326Z,98631.41
2022-07-29T13:09:43.129Z,98636.16
2022-07-29T13:12:11.878Z,98641.06
2022-07-29T13:14:39.584Z,98646.75
2022-07-29T13:17:10.271Z,98645.28
2022-07-29T13:20:09.045Z,98645.63
2022-07-29T13:22:36.185Z,98643.88
2022-07-29T13:25:03.114Z,98614.50
2022-07-29T13:27:34.212Z,98622.25
2022-07-29T13:30:04.779Z,98625.31
2022-07-29T13:32:32.620Z,98625.53
2022-07-29T13:35:05.479Z,98631.06
2022-07-29T13:37:33.328Z,98641.16
2022-07-29T13:40:00.458Z,98646.75
2022-07-29T13:42:32.106Z,98672.38
2022-07-29T13:44:59.631Z,98658.47
2022-07-29T13:47:32.849Z,98652.34
2022-07-29T13:50:01.018Z,98653.09
2022-07-29T13:52:28.446Z,98653.28
2022-07-29T13:54:54.927Z,98651.75
2022-07-29T13:57:22.877Z,98649.28
2022-07-29T13:59:53.540Z,98634.75
2022-07-29T14:02:30.311Z,98631.53
2022-07-29T14:04:56.780Z,98611.84
2022-07-29T14:07:24.955Z,98616.88
2022-07-29T14:09:51.732Z,98612.72
2022-07-29T14:12:19.639Z,98616.53
2022-07-29T14:14:49.070Z,98613.72
2022-07-29T14:17:16.853Z,98612.19
2022-07-29T14:19:44.286Z,98601.03
2022-07-29T14:22:11.265Z,98600.88
2022-07-29T14:24:38.475Z,98605.25
2022-07-29T14:27:11.625Z,98606.13
2022-07-29T14:29:38.986Z,98591.19
2022-07-29T14:32:23.646Z,98595.66
2022-07-29T14:34:50.132Z,98586.72
2022-07-29T14:37:20.048Z,98584.59
2022-07-29T14:39:48.247Z,98591.00
2022-07-29T14:42:16.602Z,98595.13
2022-07-29T14:44:46.104Z,98594.09
2022-07-29T14:47:15.485Z,98603.63
2022-07-29T14:49:41.874Z,98603.88
2022-07-29T14:52:08.353Z,98590.28
2022-07-29T14:54:35.955Z,98595.97
2022-07-29T14:57:07.533Z,98598.13
2022-07-29T14:59:33.961Z,98600.66
2022-07-29T15:02:00.958Z,98598.94
2022-07-29T15:04:27.770Z,98605.47
2022-07-29T15:06:54.711Z,98609.06
2022-07-29T15:09:23.944Z,98609.63
2022-07-29T15:11:50.643Z,98610.16
2022-07-29T15:14:18.817Z,98609.63
2022-07-29T15:16:47.979Z,98604.19
2022-07-29T15:19:15.042Z,98610.16
2022-07-29T15:21:48.590Z,98611.53
2022-07-29T15:24:16.827Z,98608.56
2022-07-29T15:26:47.631Z,98605.63
2022-07-29T15:29:15.294Z,98610.25
2022-07-29T15:31:42.056Z,98603.19
2022-07-29T15:34:08.653Z,98598.50
2022-07-29T15:36:53.753Z,98602.09
2022-07-29T15:39:23.555Z,98603.72
2022-07-29T15:41:53.180Z,98596.66
2022-07-29T15:44:20.946Z,98603.19
2022-07-29T15:46:48.330Z,98606.22
2022-07-29T15:49:16.603Z,98594.50
2022-07-29T15:51:43.471Z,98593.41
2022-07-29T15:54:09.916Z,98590.16
2022-07-29T15:56:36.524Z,98590.69
2022-07-29T15:59:04.119Z,98575.97
2022-07-29T16:01:30.646Z,98572.78
2022-07-29T16:03:58.680Z,98578.22
2022-07-29T16:06:25.095Z,98577.09
2022-07-29T16:08:51.594Z,98574.09
2022-07-29T16:11:18.359Z,98573.03
2022-07-29T16:13:44.752Z,98580.91
2022-07-29T16:16:13.086Z,98578.69
2022-07-29T16:18:40.729Z,98580.53
2022-07-29T16:21:07.178Z,98585.97
2022-07-29T16:23:36.761Z,98586.69
2022-07-29T16:26:03.338Z,98582.00
2022-07-29T16:28:30.399Z,98578.97
2022-07-29T16:30:57.314Z,98588.00
2022-07-29T16:33:24.589Z,98580.22
2022-07-29T16:35:52.114Z,98584.25
2022-07-29T16:38:19.045Z,98582.94
2022-07-29T16:40:45.807Z,98574.81
2022-07-29T16:43:12.244Z,98579.16
2022-07-29T16:45:46.239Z,98579.16
2022-07-29T16:48:14.385Z,98584.00
2022-07-29T16:50:43.365Z,98581.81
2022-07-29T16:53:11.041Z,98576.44
2022-07-29T16:55:42.296Z,98571.59
2022-07-29T16:58:09.581Z,98577.03
2022-07-29T17:00:36.037Z,98588.19
2022-07-29T17:03:02.969Z,98598.25
2022-07-29T17:05:29.476Z,98593.09
2022-07-29T17:08:16.076Z,98591.47
2022-07-29T17:10:43.818Z,98598.03
2022-07-29T17:13:11.297Z,98596.13
2022-07-29T17:15:39.145Z,98608.88
2022-07-29T17:18:12.581Z,98609.72
2022-07-29T17:20:41.345Z,98615.16
2022-07-29T17:23:08.591Z,98608.63
2022-07-29T17:25:35.225Z,98614.06
2022-07-29T17:28:01.757Z,98609.19
2022-07-29T17:30:29.405Z,98617.59
2022-07-29T17:32:57.078Z,98611.91
2022-07-29T17:35:30.891Z,98612.44
2022-07-29T17:37:57.615Z,98610.28
2022-07-29T17:40:24.408Z,98615.69
2022-07-29T17:42:51.533Z,98615.44
2022-07-29T17:45:19.256Z,98623.03
2022-07-29T17:47:46.324Z,98620.56
2022-07-29T17:50:12.799Z,98623.25
2022-07-29T17:52:41.743Z,98627.59
2022-07-29T17:55:08.742Z,98627.31
2022-07-29T17:57:35.456Z,98625.09
2022-07-29T18:00:02.151Z,98622.38
2022-07-29T18:02:28.765Z,98622.63
2022-07-29T18:04:55.547Z,98631.34
2022-07-29T18:07:22.951Z,98623.78
2022-07-29T18:09:49.683Z,98618.38
2022-07-29T18:12:16.338Z,98636.34
2022-07-29T18:14:42.733Z,98634.72
2022-07-29T18:17:09.398Z,98639.06
2022-07-29T18:19:36.403Z,98634.72
2022-07-29T18:22:05.181Z,98635.81
2022-07-29T18:24:32.669Z,98639.06
2022-07-29T18:26:59.556Z,98634.44
2022-07-29T18:29:28.213Z,98646.66
2022-07-29T18:31:55.241Z,98646.94
2022-07-29T18:34:29.220Z,98650.47
2022-07-29T18:36:56.242Z,98645.56
2022-07-29T18:39:22.984Z,98652.66
2022-07-29T18:41:51.428Z,98648.03
2022-07-29T18:44:19.501Z,98648.03
2022-07-29T18:46:50.202Z,98651.00
2022-07-29T18:49:17.176Z,98647.47
2022-07-29T18:51:43.612Z,98649.66
2022-07-29T18:54:10.170Z,98643.91
2022-07-29T18:56:38.256Z,98648.81
2022-07-29T18:59:08.979Z,98652.63
2022-07-29T19:01:36.422Z,98658.56
2022-07-29T19:04:05.134Z,98654.72
2022-07-29T19:06:33.729Z,98660.88
2022-07-29T19:09:00.205Z,98658.69
2022-07-29T19:11:27.137Z,98668.09
2022-07-29T19:13:56.855Z,98667.81
2022-07-29T19:16:23.487Z,98676.44
2022-07-29T19:18:50.369Z,98683.38
2022-07-29T19:21:17.385Z,98680.91
2022-07-29T19:24:04.175Z,98690.56
2022-07-29T19:26:35.028Z,98694.78
2022-07-29T19:29:02.690Z,98703.69
2022-07-29T19:31:30.106Z,98699.31
2022-07-29T19:34:01.084Z,98706.56
2022-07-29T19:39:09.718Z,98723.41
2022-07-29T19:41:37.767Z,98719.03
2022-07-29T19:44:04.725Z,98723.06
2022-07-29T19:46:31.245Z,98721.19
2022-07-29T19:48:59.420Z,98725.47
2022-07-29T19:51:31.490Z,98716.28
2022-07-29T19:53:58.255Z,98715.16
2022-07-29T19:56:25.938Z,98717.63
2022-07-29T19:58:53.853Z,98717.34
2022-07-29T20:01:24.254Z,98711.34
2022-07-29T20:03:53.721Z,98715.13
2022-07-29T20:06:20.485Z,98712.94
2022-07-29T20:08:50.032Z,98712.09
2022-07-29T20:11:16.725Z,98721.06
2022-07-29T20:13:46.670Z,98706.16
2022-07-29T20:16:14.204Z,98719.97
2022-07-29T20:18:42.728Z,98716.16
2022-07-29T20:21:09.442Z,98719.31
2022-07-29T20:26:29.200Z,98719.53
2022-07-29T20:42:33.576Z,98733.50
2022-07-29T20:45:08.282Z,98729.41
2022-07-29T20:47:35.739Z,98732.88
2022-07-29T20:50:03.351Z,98736.41
2022-07-29T20:52:37.722Z,98740.38
2022-07-29T20:55:04.745Z,98745.94
2022-07-29T21:05:41.477Z,98752.50
2022-07-29T21:08:10.236Z,98753.50
2022-07-29T21:10:37.259Z,98749.91
2022-07-29T21:18:26.330Z,98759.81
2022-07-29T21:21:00.776Z,98752.78
2022-07-29T21:23:29.250Z,98762.47
2022-07-29T21:25:56.970Z,98771.63
2022-07-29T21:28:24.243Z,98770.50
2022-07-29T21:30:54.719Z,98768.44
2022-07-29T21:33:23.904Z,98773.75
2022-07-29T21:38:38.576Z,98776.13
2022-07-29T21:41:11.282Z,98778.41
2022-07-29T21:43:41.916Z,98771.13
2022-07-29T21:46:09.144Z,98774.56
2022-07-29T21:48:35.775Z,98762.38
2022-07-29T21:51:02.777Z,98773.44
2022-07-29T21:56:13.066Z,98779.66
2022-07-29T21:58:42.281Z,98780.94
2022-07-29T22:01:09.032Z,98781.66
2022-07-29T22:03:36.508Z,98773.56
2022-07-29T22:06:04.981Z,98777.13
2022-07-29T22:08:31.688Z,98773.00
2022-07-29T22:10:59.248Z,98767.59
2022-07-29T22:13:25.779Z,98773.72
2022-07-29T22:15:52.812Z,98779.72
2022-07-29T22:18:20.785Z,98768.91
2022-07-29T22:20:48.795Z,98777.50
2022-07-29T22:23:15.446Z,98779.63
2022-07-29T22:25:42.169Z,98776.91
2022-07-29T22:28:08.646Z,98772.09
2022-07-29T22:30:35.034Z,98769.72
2022-07-29T22:33:07.352Z,98773.34
2022-07-29T22:35:34.547Z,98773.00
2022-07-29T22:38:00.967Z,98766.22
2022-07-29T22:40:30.631Z,98781.03
2022-07-29T22:42:57.985Z,98772.81
2022-07-29T22:45:25.827Z,98771.94
2022-07-29T22:47:57.890Z,98771.13
2022-07-29T22:50:26.115Z,98773.13
2022-07-29T22:52:55.419Z,98766.59
2022-07-29T22:55:24.351Z,98769.44
2022-07-29T22:57:51.053Z,98776.63
2022-07-29T23:00:17.836Z,98778.19
2022-07-29T23:02:45.814Z,98778.06
2022-07-29T23:05:14.443Z,98778.81
2022-07-29T23:07:40.961Z,98775.41
2022-07-29T23:10:10.042Z,98774.38
2022-07-29T23:12:41.593Z,98769.78
2022-07-29T23:15:08.150Z,98776.47
2022-07-29T23:17:36.575Z,98775.66
2022-07-29T23:20:10.068Z,98771.56
2022-07-29T23:22:37.379Z,98764.75
2022-07-29T23:25:04.828Z,98769.34
2022-07-29T23:27:31.325Z,98766.28
2022-07-29T23:29:57.930Z,98770.41
2022-07-29T23:32:24.458Z,98768.97
2022-07-29T23:34:52.386Z,98773.72
2022-07-29T23:37:18.912Z,98767.94
2022-07-29T23:39:45.874Z,98770.31
2022-07-29T23:42:12.477Z,98771.13
2022-07-29T23:44:39.139Z,98776.19
2022-07-29T23:47:05.888Z,98770.56
2022-07-29T23:49:34.457Z,98770.44
2022-07-29T23:52:00.819Z,98765.19
2022-07-29T23:54:28.733Z,98774.34
2022-07-29T23:56:55.608Z,98772.34
2022-07-29T23:59:22.044Z,98772.22
